»·PEaware :: DAL214 KPHX-KDEN

DAL214 :: KPHX-KDEN

FLIGHT INFORMATION

Flight Status: Arrived
Operator:
Delta Air Lines
More flights by this operator :: More flights under this callsign
Pilot: Jordan S. (14404)
Aircraft: BOEING 737-800
(B738)
More flights by this aircraft type
Origin: KPHX Phoenix Sky Harbor Intl
United States
Destination: KDEN Denver Intl
United States
More flights between these airports :: More routes between these airports
Route: YOTES5 YOOPR OURAY PEEKK3
File this flight plan on PilotEdge
Remarks:
Altitude:
(Current/Filed)
31,000ft
Speed:
(Current/Filed)
600kts
Departed: 09-May-18 08:40 PM
Arrived: 09-May-18 10:05 PM
Distance/Time
Traveled:
522nm/1:25
Distance/Time
To Go:
Arrived

Flight Plot

Page will automatically refresh every two minutes.


Map Options




Map Legend


Flown Route
Filed Route
Departure Airport
Arrival Airport
Navaid (VOR, NDB)
Fix

Horizontal Profiles

Position Reports

Time Latitude Longitude Heading Altitude Ground
Speed
09-May-18 20:27 33.437639 -111.999906 92 1141ft 0kts
09-May-18 20:28 33.437639 -111.999906 92 1141ft 0kts
09-May-18 20:29 33.437639 -111.999906 92 1141ft 0kts
09-May-18 20:30 33.437639 -111.999906 92 1141ft 0kts
09-May-18 20:31 33.437639 -111.999906 92 1141ft 0kts
09-May-18 20:32 33.437639 -111.999906 92 1141ft 0kts
09-May-18 20:33 33.437640 -111.999932 92 1141ft 4kts
09-May-18 20:34 33.437518 -112.000675 35 1142ft 0kts
09-May-18 20:35 33.437518 -112.000675 35 1141ft 0kts
09-May-18 20:36 33.438383 -112.000356 3 1141ft 0kts
09-May-18 20:37 33.438983 -111.999950 69 1141ft 14kts
09-May-18 20:38 33.439762 -111.994005 90 1141ft 25kts
09-May-18 20:39 33.439802 -111.992681 67 1141ft 0kts
09-May-18 20:40 33.440822 -112.001732 270 1142ft 123kts
09-May-18 20:41 33.442299 -112.063652 273 2774ft 240kts
09-May-18 20:42 33.482413 -112.130207 323 5736ft 260kts
09-May-18 20:43 33.545649 -112.174647 356 8601ft 282kts
09-May-18 20:44 33.624368 -112.158825 34 10866ft 314kts
09-May-18 20:45 33.690250 -112.076311 45 12495ft 370kts
09-May-18 20:46 33.762820 -111.981325 51 14014ft 396kts
09-May-18 20:47 33.829584 -111.873989 51 15526ft 406kts
09-May-18 20:48 33.900288 -111.761685 50 17328ft 435kts
09-May-18 20:49 33.974057 -111.644913 50 19132ft 445kts
09-May-18 20:50 34.049718 -111.561981 29 20637ft 448kts
09-May-18 20:51 34.156373 -111.481242 29 22454ft 461kts
09-May-18 20:52 34.265388 -111.397060 29 24278ft 473kts
09-May-18 20:53 34.377083 -111.310726 29 26086ft 481kts
09-May-18 20:54 34.489969 -111.223430 29 27868ft 484kts
09-May-18 20:55 34.603096 -111.136065 29 29639ft 484kts
09-May-18 20:56 34.718843 -111.057083 24 31042ft 483kts
09-May-18 20:57 34.839631 -110.977172 24 31045ft 500kts
09-May-18 20:58 34.960003 -110.897282 25 31044ft 494kts
09-May-18 20:59 35.079093 -110.818255 25 31045ft 487kts
09-May-18 21:00 35.197471 -110.739699 25 31046ft 488kts
09-May-18 21:01 35.316868 -110.660513 25 31046ft 491kts
09-May-18 21:02 35.436692 -110.581068 25 31045ft 491kts
09-May-18 21:03 35.556484 -110.501706 25 31048ft 491kts
09-May-18 21:04 35.673365 -110.416186 40 31047ft 496kts
09-May-18 21:05 35.760175 -110.283749 49 31045ft 500kts
09-May-18 21:06 35.846409 -110.151991 48 31062ft 496kts
09-May-18 21:07 35.932996 -110.020355 48 31108ft 496kts
09-May-18 21:08 36.020017 -109.888317 48 31153ft 495kts
09-May-18 21:09 36.106727 -109.756930 48 31155ft 495kts
09-May-18 21:10 36.193707 -109.625370 48 31157ft 495kts
09-May-18 21:11 36.280695 -109.493969 47 31157ft 495kts
09-May-18 21:12 36.367926 -109.362441 47 31160ft 495kts
09-May-18 21:13 36.455132 -109.231113 48 31156ft 495kts
09-May-18 21:14 36.542656 -109.099525 47 31095ft 497kts
09-May-18 21:15 36.630952 -108.967000 47 31031ft 499kts
09-May-18 21:16 36.719453 -108.834394 47 31038ft 499kts
09-May-18 21:17 36.808155 -108.701587 47 31031ft 500kts
09-May-18 21:18 36.896617 -108.569419 46 31039ft 499kts
09-May-18 21:19 36.985779 -108.436405 47 31029ft 501kts
09-May-18 21:20 37.074204 -108.304701 47 31033ft 501kts
09-May-18 21:21 37.155309 -108.184078 47 31048ft 502kts
09-May-18 21:22 37.245349 -108.050379 46 31108ft 502kts
09-May-18 21:23 37.334955 -107.917510 46 31128ft 502kts
09-May-18 21:24 37.425122 -107.784051 46 31129ft 502kts
09-May-18 21:25 37.515518 -107.650427 46 31178ft 502kts
09-May-18 21:26 37.606097 -107.516804 46 31143ft 502kts
09-May-18 21:27 37.696346 -107.383813 45 31233ft 501kts
09-May-18 21:28 37.786443 -107.251372 46 31234ft 501kts
09-May-18 21:29 37.876923 -107.118470 46 31246ft 501kts
09-May-18 21:30 37.967732 -106.985377 45 31209ft 501kts
09-May-18 21:31 38.058796 -106.852038 45 31209ft 500kts
09-May-18 21:32 38.149655 -106.719318 45 31215ft 499kts
09-May-18 21:33 38.240669 -106.586737 43 31210ft 497kts
09-May-18 21:34 38.339494 -106.464860 40 31242ft 496kts
09-May-18 21:35 38.438175 -106.342501 40 31291ft 496kts
09-May-18 21:36 38.536704 -106.219968 40 31300ft 496kts
09-May-18 21:37 38.632573 -106.099879 40 30678ft 461kts
09-May-18 21:38 38.720991 -105.988647 40 28971ft 442kts
09-May-18 21:39 38.807102 -105.880061 40 27222ft 426kts
09-May-18 21:40 38.888099 -105.777447 41 25478ft 397kts
09-May-18 21:41 38.964009 -105.680478 43 23749ft 377kts
09-May-18 21:42 39.037474 -105.586635 45 22076ft 369kts
09-May-18 21:43 39.106644 -105.498304 45 20441ft 356kts
09-May-18 21:44 39.175289 -105.410535 45 18891ft 343kts
09-May-18 21:45 39.241818 -105.325179 46 17525ft 337kts
09-May-18 21:46 39.312590 -105.250452 38 16450ft 327kts
09-May-18 21:47 39.384855 -105.179601 38 15856ft 326kts
09-May-18 21:48 39.453825 -105.112910 37 15280ft 322kts
09-May-18 21:49 39.525009 -105.043260 37 15037ft 323kts
09-May-18 21:50 39.596418 -104.972893 36 14599ft 322kts
09-May-18 21:51 39.666481 -104.903796 36 13799ft 315kts
09-May-18 21:52 39.738001 -104.843414 9 13048ft 306kts
09-May-18 21:53 39.822574 -104.840274 359 13025ft 306kts
09-May-18 21:54 39.908252 -104.839216 359 11332ft 309kts
09-May-18 21:55 39.993206 -104.839754 358 9448ft 305kts
09-May-18 21:56 40.071778 -104.840158 359 9004ft 253kts
09-May-18 21:57 40.132156 -104.815232 58 9039ft 245kts
09-May-18 21:58 40.119286 -104.734806 127 8989ft 231kts
09-May-18 21:59 40.078821 -104.679468 142 8999ft 210kts
09-May-18 22:00 40.025201 -104.658142 181 8688ft 213kts
09-May-18 22:01 39.968827 -104.658796 182 7580ft 190kts
09-May-18 22:02 39.919046 -104.659417 182 6593ft 172kts
09-May-18 22:03 39.874393 -104.659969 182 5734ft 150kts
09-May-18 22:04 39.844924 -104.660369 181 5442ft 42kts
09-May-18 22:05 39.840250 -104.661989 243 5442ft 0kts

Navigation Log

Ident Type
1. KPHX Airport
2. SPRKY Fix
3. GOALY Fix
4. POCCK Fix
5. MRBIL Fix
6. YOTES Fix
7. YOOPR Fix
8. OURAY Fix
9. KNOSA Fix
10. RAWAH Fix
11. FREZE Fix
12. PEEKK Fix
13. LARKS Fix
14. VRYHI Fix
15. EOLUS Fix
16. LOOOK Fix
17. LONGS Fix
18. CLFFF Fix
19. GREYS Fix
20. HIMAY Fix
21. KDEN Airport